sensor_id;sensor_type;location;lat;lon;timestamp;pressure;altitude;pressure_sealevel;temperature;humidity
32083;BME280;18597;48.328;7.932;2024-01-30T00:01:56;100975.72;;;0.96;100.00
32083;BME280;18597;48.328;7.932;2024-01-30T00:04:21;100971.34;;;0.95;100.00
32083;BME280;18597;48.328;7.932;2024-01-30T00:06:47;100966.75;;;1.03;100.00
32083;BME280;18597;48.328;7.932;2024-01-30T00:09:13;100963.97;;;1.09;100.00
32083;BME280;18597;48.328;7.932;2024-01-30T00:11:39;100968.69;;;0.96;100.00
32083;BME280;18597;48.328;7.932;2024-01-30T00:14:05;100973.22;;;0.90;100.00
32083;BME280;18597;48.328;7.932;2024-01-30T00:16:31;100975.84;;;0.91;100.00
32083;BME280;18597;48.328;7.932;2024-01-30T00:18:57;100969.88;;;0.83;100.00
32083;BME280;18597;48.328;7.932;2024-01-30T00:21:23;100971.91;;;0.72;100.00
32083;BME280;18597;48.328;7.932;2024-01-30T00:23:49;100974.44;;;0.75;100.00
32083;BME280;18597;48.328;7.932;2024-01-30T00:26:15;100984.72;;;0.48;100.00
32083;BME280;18597;48.328;7.932;2024-01-30T00:28:42;100987.50;;;0.42;100.00
32083;BME280;18597;48.328;7.932;2024-01-30T00:31:08;100986.66;;;0.40;100.00
32083;BME280;18597;48.328;7.932;2024-01-30T00:33:38;100985.97;;;0.32;100.00
32083;BME280;18597;48.328;7.932;2024-01-30T00:36:06;100986.50;;;0.48;100.00
32083;BME280;18597;48.328;7.932;2024-01-30T00:38:32;100989.56;;;0.28;100.00
32083;BME280;18597;48.328;7.932;2024-01-30T00:40:58;100992.41;;;0.17;100.00
32083;BME280;18597;48.328;7.932;2024-01-30T00:43:24;100994.38;;;0.06;100.00
32083;BME280;18597;48.328;7.932;2024-01-30T00:45:51;100987.22;;;0.14;100.00
32083;BME280;18597;48.328;7.932;2024-01-30T00:48:18;100990.41;;;0.28;100.00
32083;BME280;18597;48.328;7.932;2024-01-30T00:50:44;100990.38;;;0.32;100.00
32083;BME280;18597;48.328;7.932;2024-01-30T00:53:10;100980.75;;;0.29;100.00
32083;BME280;18597;48.328;7.932;2024-01-30T00:55:36;100980.97;;;0.20;100.00
32083;BME280;18597;48.328;7.932;2024-01-30T00:58:02;100980.81;;;0.27;100.00
32083;BME280;18597;48.328;7.932;2024-01-30T01:00:28;100982.53;;;0.28;100.00
32083;BME280;18597;48.328;7.932;2024-01-30T01:02:56;100982.81;;;0.16;100.00
32083;BME280;18597;48.328;7.932;2024-01-30T01:05:22;100972.81;;;0.32;100.00
32083;BME280;18597;48.328;7.932;2024-01-30T01:07:48;100975.84;;;0.14;100.00
32083;BME280;18597;48.328;7.932;2024-01-30T01:10:16;100974.88;;;0.18;100.00
32083;BME280;18597;48.328;7.932;2024-01-30T01:12:42;100976.03;;;0.05;100.00
32083;BME280;18597;48.328;7.932;2024-01-30T01:15:09;100979.53;;;0.05;100.00
32083;BME280;18597;48.328;7.932;2024-01-30T01:17:36;100977.81;;;0.04;100.00
32083;BME280;18597;48.328;7.932;2024-01-30T01:20:03;100981.00;;;0.18;100.00
32083;BME280;18597;48.328;7.932;2024-01-30T01:22:31;100975.50;;;0.29;100.00
32083;BME280;18597;48.328;7.932;2024-01-30T01:24:56;100974.41;;;0.39;100.00
32083;BME280;18597;48.328;7.932;2024-01-30T01:27:22;100975.34;;;0.37;100.00
32083;BME280;18597;48.328;7.932;2024-01-30T01:29:48;100972.44;;;0.10;100.00
32083;BME280;18597;48.328;7.932;2024-01-30T01:32:14;100974.19;;;0.10;100.00
32083;BME280;18597;48.328;7.932;2024-01-30T01:34:40;100972.31;;;0.16;100.00
32083;BME280;18597;48.328;7.932;2024-01-30T01:37:05;100973.91;;;0.23;100.00
32083;BME280;18597;48.328;7.932;2024-01-30T01:39:31;100974.44;;;0.38;100.00
32083;BME280;18597;48.328;7.932;2024-01-30T01:41:57;100973.84;;;0.25;100.00
32083;BME280;18597;48.328;7.932;2024-01-30T01:44:23;100973.38;;;0.08;100.00
32083;BME280;18597;48.328;7.932;2024-01-30T01:46:48;100969.78;;;0.10;100.00
32083;BME280;18597;48.328;7.932;2024-01-30T01:49:15;100968.97;;;0.07;100.00
32083;BME280;18597;48.328;7.932;2024-01-30T01:51:42;100964.66;;;0.04;100.00
32083;BME280;18597;48.328;7.932;2024-01-30T01:54:10;100957.53;;;0.11;100.00
32083;BME280;18597;48.328;7.932;2024-01-30T01:56:37;100950.41;;;0.16;100.00
32083;BME280;18597;48.328;7.932;2024-01-30T01:59:06;100968.00;;;0.12;100.00
32083;BME280;18597;48.328;7.932;2024-01-30T02:01:37;100953.66;;;0.27;100.00
32083;BME280;18597;48.328;7.932;2024-01-30T02:04:04;100962.63;;;0.18;100.00
32083;BME280;18597;48.328;7.932;2024-01-30T02:06:31;100964.47;;;0.13;100.00
32083;BME280;18597;48.328;7.932;2024-01-30T02:08:57;100957.69;;;0.03;100.00
32083;BME280;18597;48.328;7.932;2024-01-30T02:11:24;100960.06;;;0.15;100.00
32083;BME280;18597;48.328;7.932;2024-01-30T02:13:50;100958.88;;;0.28;100.00
32083;BME280;18597;48.328;7.932;2024-01-30T02:16:16;100957.47;;;0.12;100.00
32083;BME280;18597;48.328;7.932;2024-01-30T02:18:43;100960.06;;;0.15;100.00
32083;BME280;18597;48.328;7.932;2024-01-30T02:21:16;100958.78;;;-0.07;100.00
32083;BME280;18597;48.328;7.932;2024-01-30T02:23:44;100959.84;;;-0.17;100.00
32083;BME280;18597;48.328;7.932;2024-01-30T02:26:11;100955.34;;;-0.11;100.00
32083;BME280;18597;48.328;7.932;2024-01-30T02:28:38;100964.41;;;0.16;100.00
32083;BME280;18597;48.328;7.932;2024-01-30T02:31:04;100954.34;;;-0.05;100.00
32083;BME280;18597;48.328;7.932;2024-01-30T02:33:30;100958.88;;;-0.12;100.00
32083;BME280;18597;48.328;7.932;2024-01-30T02:35:56;100954.66;;;-0.20;100.00
32083;BME280;18597;48.328;7.932;2024-01-30T02:38:22;100957.88;;;-0.06;100.00
32083;BME280;18597;48.328;7.932;2024-01-30T02:40:49;100956.41;;;-0.19;100.00
32083;BME280;18597;48.328;7.932;2024-01-30T02:43:16;100955.84;;;0.08;100.00
32083;BME280;18597;48.328;7.932;2024-01-30T02:45:42;100961.94;;;0.09;100.00
32083;BME280;18597;48.328;7.932;2024-01-30T02:48:08;100963.63;;;0.11;100.00
32083;BME280;18597;48.328;7.932;2024-01-30T02:50:34;100954.84;;;0.12;100.00
32083;BME280;18597;48.328;7.932;2024-01-30T02:53:00;100960.03;;;0.17;100.00
32083;BME280;18597;48.328;7.932;2024-01-30T02:55:26;100974.03;;;0.17;100.00
32083;BME280;18597;48.328;7.932;2024-01-30T02:57:52;100954.63;;;0.23;100.00
32083;BME280;18597;48.328;7.932;2024-01-30T03:00:19;100960.75;;;0.22;100.00
32083;BME280;18597;48.328;7.932;2024-01-30T03:02:45;100959.50;;;-0.01;100.00
32083;BME280;18597;48.328;7.932;2024-01-30T03:05:11;100966.09;;;-0.23;100.00
32083;BME280;18597;48.328;7.932;2024-01-30T03:07:37;100972.44;;;-0.33;100.00
32083;BME280;18597;48.328;7.932;2024-01-30T03:10:05;100966.97;;;-0.22;100.00
32083;BME280;18597;48.328;7.932;2024-01-30T03:12:32;100971.59;;;-0.35;100.00
32083;BME280;18597;48.328;7.932;2024-01-30T03:14:57;100977.13;;;-0.50;100.00
32083;BME280;18597;48.328;7.932;2024-01-30T03:17:23;100966.78;;;-0.58;100.00
32083;BME280;18597;48.328;7.932;2024-01-30T03:19:50;100973.53;;;-0.46;100.00
32083;BME280;18597;48.328;7.932;2024-01-30T03:22:16;100978.28;;;-0.65;100.00
32083;BME280;18597;48.328;7.932;2024-01-30T03:24:42;100980.94;;;-0.67;100.00
32083;BME280;18597;48.328;7.932;2024-01-30T03:27:08;100976.69;;;-0.74;100.00
32083;BME280;18597;48.328;7.932;2024-01-30T03:29:34;100980.97;;;-0.70;100.00
32083;BME280;18597;48.328;7.932;2024-01-30T03:32:00;100982.06;;;-0.81;100.00
32083;BME280;18597;48.328;7.932;2024-01-30T03:34:26;100979.34;;;-0.77;100.00
32083;BME280;18597;48.328;7.932;2024-01-30T03:36:51;100982.97;;;-0.82;100.00
32083;BME280;18597;48.328;7.932;2024-01-30T03:39:17;100986.19;;;-0.68;100.00
32083;BME280;18597;48.328;7.932;2024-01-30T03:41:43;100985.91;;;-0.53;100.00
32083;BME280;18597;48.328;7.932;2024-01-30T03:44:10;100987.03;;;-0.65;100.00
32083;BME280;18597;48.328;7.932;2024-01-30T03:46:36;100988.00;;;-0.70;100.00
32083;BME280;18597;48.328;7.932;2024-01-30T03:49:02;100984.38;;;-0.63;100.00
32083;BME280;18597;48.328;7.932;2024-01-30T03:51:27;100988.81;;;-0.67;100.00
32083;BME280;18597;48.328;7.932;2024-01-30T03:53:53;100981.88;;;-0.71;100.00
32083;BME280;18597;48.328;7.932;2024-01-30T03:56:19;100988.53;;;-0.53;100.00
32083;BME280;18597;48.328;7.932;2024-01-30T03:58:45;100985.59;;;-0.35;100.00
32083;BME280;18597;48.328;7.932;2024-01-30T04:01:14;100981.19;;;-0.34;100.00
32083;BME280;18597;48.328;7.932;2024-01-30T04:03:41;100989.06;;;-0.34;100.00
32083;BME280;18597;48.328;7.932;2024-01-30T04:06:08;100991.84;;;-0.42;100.00
32083;BME280;18597;48.328;7.932;2024-01-30T04:08:34;100984.22;;;-0.56;100.00
32083;BME280;18597;48.328;7.932;2024-01-30T04:11:04;100983.34;;;-0.56;100.00
32083;BME280;18597;48.328;7.932;2024-01-30T04:13:32;100988.72;;;-0.62;100.00
32083;BME280;18597;48.328;7.932;2024-01-30T04:16:00;100988.53;;;-0.53;100.00
32083;BME280;18597;48.328;7.932;2024-01-30T04:18:27;100984.97;;;-0.49;100.00
32083;BME280;18597;48.328;7.932;2024-01-30T04:20:53;100984.94;;;-0.47;100.00
32083;BME280;18597;48.328;7.932;2024-01-30T04:23:19;100981.06;;;-0.26;100.00
32083;BME280;18597;48.328;7.932;2024-01-30T04:25:45;100982.09;;;-0.35;100.00
32083;BME280;18597;48.328;7.932;2024-01-30T04:28:11;100981.94;;;-0.28;100.00
32083;BME280;18597;48.328;7.932;2024-01-30T04:30:38;100975.00;;;-0.30;100.00
32083;BME280;18597;48.328;7.932;2024-01-30T04:33:04;100975.72;;;-0.23;100.00
32083;BME280;18597;48.328;7.932;2024-01-30T04:35:30;100982.66;;;-0.19;100.00
32083;BME280;18597;48.328;7.932;2024-01-30T04:37:56;100976.59;;;-0.23;100.00
32083;BME280;18597;48.328;7.932;2024-01-30T04:40:21;100980.56;;;-0.02;100.00
32083;BME280;18597;48.328;7.932;2024-01-30T04:42:47;100988.47;;;-0.04;100.00
32083;BME280;18597;48.328;7.932;2024-01-30T04:45:13;100987.28;;;0.11;100.00
32083;BME280;18597;48.328;7.932;2024-01-30T04:47:39;100989.97;;;0.10;100.00
32083;BME280;18597;48.328;7.932;2024-01-30T04:50:07;100985.44;;;0.16;100.00
32083;BME280;18597;48.328;7.932;2024-01-30T04:52:34;100991.69;;;0.11;100.00
32083;BME280;18597;48.328;7.932;2024-01-30T04:55:00;100991.00;;;0.01;100.00
32083;BME280;18597;48.328;7.932;2024-01-30T04:57:26;100988.84;;;0.20;100.00
32083;BME280;18597;48.328;7.932;2024-01-30T04:59:51;100995.78;;;0.22;100.00
32083;BME280;18597;48.328;7.932;2024-01-30T05:02:17;100990.41;;;0.28;100.00
32083;BME280;18597;48.328;7.932;2024-01-30T05:04:43;100994.31;;;0.11;100.00
32083;BME280;18597;48.328;7.932;2024-01-30T05:07:09;100992.41;;;0.17;100.00
32083;BME280;18597;48.328;7.932;2024-01-30T05:09:35;100994.38;;;0.06;100.00
32083;BME280;18597;48.328;7.932;2024-01-30T05:12:00;100991.44;;;0.21;100.00
32083;BME280;18597;48.328;7.932;2024-01-30T05:14:26;100990.88;;;0.07;100.00
32083;BME280;18597;48.328;7.932;2024-01-30T05:16:52;100994.94;;;0.23;100.00
32083;BME280;18597;48.328;7.932;2024-01-30T05:19:18;100994.16;;;0.18;100.00
32083;BME280;18597;48.328;7.932;2024-01-30T05:21:44;100994.22;;;0.14;100.00
32083;BME280;18597;48.328;7.932;2024-01-30T05:24:10;100992.31;;;0.22;100.00
32083;BME280;18597;48.328;7.932;2024-01-30T05:26:36;100997.69;;;0.17;100.00
32083;BME280;18597;48.328;7.932;2024-01-30T05:29:02;100992.63;;;0.07;100.00
32083;BME280;18597;48.328;7.932;2024-01-30T05:31:28;100994.19;;;0.17;100.00
32083;BME280;18597;48.328;7.932;2024-01-30T05:33:54;101002.06;;;0.17;100.00
32083;BME280;18597;48.328;7.932;2024-01-30T05:36:20;101002.84;;;0.20;100.00
32083;BME280;18597;48.328;7.932;2024-01-30T05:38:47;101001.91;;;0.24;100.00
32083;BME280;18597;48.328;7.932;2024-01-30T05:41:13;101006.19;;;0.28;100.00
32083;BME280;18597;48.328;7.932;2024-01-30T05:43:39;100990.94;;;0.44;100.00
32083;BME280;18597;48.328;7.932;2024-01-30T05:46:05;101004.25;;;0.37;100.00
32083;BME280;18597;48.328;7.932;2024-01-30T05:48:32;101001.13;;;0.19;100.00
32083;BME280;18597;48.328;7.932;2024-01-30T05:50:58;100998.16;;;0.35;100.00
32083;BME280;18597;48.328;7.932;2024-01-30T05:53:25;101003.44;;;0.35;100.00
32083;BME280;18597;48.328;7.932;2024-01-30T05:55:51;100994.16;;;0.57;100.00
32083;BME280;18597;48.328;7.932;2024-01-30T05:58:17;100997.78;;;0.51;100.00
32083;BME280;18597;48.328;7.932;2024-01-30T06:00:43;100992.66;;;0.47;100.00
32083;BME280;18597;48.328;7.932;2024-01-30T06:03:08;100996.19;;;0.44;100.00
32083;BME280;18597;48.328;7.932;2024-01-30T06:05:34;100998.22;;;0.33;100.00
32083;BME280;18597;48.328;7.932;2024-01-30T06:08:00;101004.13;;;0.43;100.00
32083;BME280;18597;48.328;7.932;2024-01-30T06:10:26;101007.88;;;0.33;100.00
32083;BME280;18597;48.328;7.932;2024-01-30T06:12:52;101006.19;;;0.28;100.00
32083;BME280;18597;48.328;7.932;2024-01-30T06:15:17;100999.38;;;0.59;100.00
32083;BME280;18597;48.328;7.932;2024-01-30T06:17:43;100998.16;;;0.73;100.00
32083;BME280;18597;48.328;7.932;2024-01-30T06:20:09;100998.53;;;0.58;100.00
32083;BME280;18597;48.328;7.932;2024-01-30T06:22:35;101004.84;;;0.49;100.00
32083;BME280;18597;48.328;7.932;2024-01-30T06:25:01;101005.59;;;0.56;100.00
32083;BME280;18597;48.328;7.932;2024-01-30T06:27:27;101005.94;;;0.79;100.00
32083;BME280;18597;48.328;7.932;2024-01-30T06:29:53;101004.97;;;0.83;100.00
32083;BME280;18597;48.328;7.932;2024-01-30T06:32:19;101009.19;;;0.89;100.00
32083;BME280;18597;48.328;7.932;2024-01-30T06:34:45;101011.19;;;0.79;100.00
32083;BME280;18597;48.328;7.932;2024-01-30T06:37:11;101004.84;;;0.88;100.00
32083;BME280;18597;48.328;7.932;2024-01-30T06:39:36;101005.75;;;0.87;100.00
32083;BME280;18597;48.328;7.932;2024-01-30T06:42:02;101001.44;;;0.83;100.00
32083;BME280;18597;48.328;7.932;2024-01-30T06:44:28;101010.91;;;0.90;100.00
32083;BME280;18597;48.328;7.932;2024-01-30T06:46:54;101004.75;;;0.93;100.00
32083;BME280;18597;48.328;7.932;2024-01-30T06:49:20;101005.25;;;0.71;100.00
32083;BME280;18597;48.328;7.932;2024-01-30T06:51:47;101008.88;;;0.66;100.00
32083;BME280;18597;48.328;7.932;2024-01-30T06:54:13;101006.19;;;0.69;100.00
32083;BME280;18597;48.328;7.932;2024-01-30T06:56:40;101013.91;;;0.76;100.00
32083;BME280;18597;48.328;7.932;2024-01-30T06:59:06;101011.97;;;0.85;100.00
32083;BME280;18597;48.328;7.932;2024-01-30T07:01:34;101010.00;;;0.93;100.00
32083;BME280;18597;48.328;7.932;2024-01-30T07:04:00;101012.69;;;0.91;100.00
32083;BME280;18597;48.328;7.932;2024-01-30T07:06:26;101011.28;;;0.76;100.00
32083;BME280;18597;48.328;7.932;2024-01-30T07:08:52;101013.47;;;0.95;100.00
32083;BME280;18597;48.328;7.932;2024-01-30T07:11:20;101019.53;;;0.98;100.00
32083;BME280;18597;48.328;7.932;2024-01-30T07:13:48;101014.94;;;1.05;100.00
32083;BME280;18597;48.328;7.932;2024-01-30T07:16:15;101010.69;;;1.01;100.00
32083;BME280;18597;48.328;7.932;2024-01-30T07:18:41;101014.94;;;1.05;100.00
32083;BME280;18597;48.328;7.932;2024-01-30T07:21:07;101015.84;;;1.04;100.00
32083;BME280;18597;48.328;7.932;2024-01-30T07:23:32;101010.31;;;1.16;100.00
32083;BME280;18597;48.328;7.932;2024-01-30T07:26:01;101003.03;;;1.26;100.00
32083;BME280;18597;48.328;7.932;2024-01-30T07:28:27;101007.03;;;1.41;100.00
32083;BME280;18597;48.328;7.932;2024-01-30T07:30:52;101009.31;;;1.54;100.00
32083;BME280;18597;48.328;7.932;2024-01-30T07:33:18;101006.53;;;1.60;100.00
32083;BME280;18597;48.328;7.932;2024-01-30T07:35:45;101009.78;;;1.70;100.00
32083;BME280;18597;48.328;7.932;2024-01-30T07:38:11;101001.75;;;1.75;100.00
32083;BME280;18597;48.328;7.932;2024-01-30T07:40:37;101003.13;;;1.88;100.00
32083;BME280;18597;48.328;7.932;2024-01-30T07:43:03;101007.03;;;2.06;100.00
32083;BME280;18597;48.328;7.932;2024-01-30T07:45:29;101017.06;;;2.22;100.00
32083;BME280;18597;48.328;7.932;2024-01-30T07:47:58;101017.72;;;2.31;100.00
32083;BME280;18597;48.328;7.932;2024-01-30T07:50:26;101015.44;;;2.48;100.00
32083;BME280;18597;48.328;7.932;2024-01-30T07:52:52;101023.63;;;2.68;100.00
32083;BME280;18597;48.328;7.932;2024-01-30T07:55:20;101026.50;;;2.89;100.00
32083;BME280;18597;48.328;7.932;2024-01-30T07:57:52;101028.28;;;3.15;100.00
32083;BME280;18597;48.328;7.932;2024-01-30T08:00:19;101018.53;;;3.43;100.00
32083;BME280;18597;48.328;7.932;2024-01-30T08:02:45;101020.28;;;3.94;100.00
32083;BME280;18597;48.328;7.932;2024-01-30T08:05:11;101026.81;;;4.78;100.00
32083;BME280;18597;48.328;7.932;2024-01-30T08:07:37;101023.34;;;5.62;100.00
32083;BME280;18597;48.328;7.932;2024-01-30T08:10:03;101018.50;;;6.87;100.00
32083;BME280;18597;48.328;7.932;2024-01-30T08:12:29;101016.13;;;7.88;100.00
32083;BME280;18597;48.328;7.932;2024-01-30T08:14:55;101017.44;;;7.97;100.00
32083;BME280;18597;48.328;7.932;2024-01-30T08:17:21;101015.25;;;7.70;100.00
32083;BME280;18597;48.328;7.932;2024-01-30T08:19:46;101011.97;;;7.31;100.00
32083;BME280;18597;48.328;7.932;2024-01-30T08:22:12;101013.19;;;6.87;100.00
32083;BME280;18597;48.328;7.932;2024-01-30T08:24:38;101012.81;;;6.59;100.00
32083;BME280;18597;48.328;7.932;2024-01-30T08:27:07;101015.28;;;6.24;100.00
32083;BME280;18597;48.328;7.932;2024-01-30T08:29:35;101017.06;;;6.05;100.00
32083;BME280;18597;48.328;7.932;2024-01-30T08:32:01;101010.44;;;5.95;100.00
32083;BME280;18597;48.328;7.932;2024-01-30T08:34:28;101005.28;;;5.92;100.00
32083;BME280;18597;48.328;7.932;2024-01-30T08:36:53;101007.13;;;5.90;100.00
32083;BME280;18597;48.328;7.932;2024-01-30T08:39:19;101007.97;;;5.90;100.00
32083;BME280;18597;48.328;7.932;2024-01-30T08:41:45;101007.56;;;5.79;100.00
32083;BME280;18597;48.328;7.932;2024-01-30T08:44:11;101013.53;;;5.84;100.00
32083;BME280;18597;48.328;7.932;2024-01-30T08:46:37;101011.53;;;5.91;100.00
32083;BME280;18597;48.328;7.932;2024-01-30T08:49:03;101015.25;;;5.85;100.00
32083;BME280;18597;48.328;7.932;2024-01-30T08:51:30;101015.94;;;5.90;100.00
32083;BME280;18597;48.328;7.932;2024-01-30T08:53:56;101017.69;;;5.91;100.00
32083;BME280;18597;48.328;7.932;2024-01-30T08:56:22;101020.38;;;6.10;100.00
32083;BME280;18597;48.328;7.932;2024-01-30T08:58:49;101016.50;;;6.17;100.00
32083;BME280;18597;48.328;7.932;2024-01-30T09:01:15;101017.09;;;6.24;100.00
32083;BME280;18597;48.328;7.932;2024-01-30T09:03:41;101010.38;;;6.35;100.00
32083;BME280;18597;48.328;7.932;2024-01-30T09:06:10;101016.97;;;6.46;100.00
32083;BME280;18597;48.328;7.932;2024-01-30T09:08:36;101005.78;;;6.58;100.00
32083;BME280;18597;48.328;7.932;2024-01-30T09:11:12;101009.63;;;6.70;100.00
32083;BME280;18597;48.328;7.932;2024-01-30T09:13:38;101003.84;;;6.80;100.00
32083;BME280;18597;48.328;7.932;2024-01-30T09:16:04;101008.31;;;6.97;100.00
32083;BME280;18597;48.328;7.932;2024-01-30T09:18:30;101015.94;;;7.05;100.00
32083;BME280;18597;48.328;7.932;2024-01-30T09:20:56;101023.09;;;7.03;100.00
32083;BME280;18597;48.328;7.932;2024-01-30T09:23:22;101016.03;;;7.20;100.00
32083;BME280;18597;48.328;7.932;2024-01-30T09:25:48;101027.69;;;7.35;100.00
32083;BME280;18597;48.328;7.932;2024-01-30T09:28:14;101047.09;;;7.55;100.00
32083;BME280;18597;48.328;7.932;2024-01-30T09:30:40;101036.63;;;7.69;100.00
32083;BME280;18597;48.328;7.932;2024-01-30T09:33:06;101037.31;;;7.90;100.00
32083;BME280;18597;48.328;7.932;2024-01-30T09:35:32;101036.88;;;8.15;100.00
32083;BME280;18597;48.328;7.932;2024-01-30T09:37:59;101042.66;;;8.40;100.00
32083;BME280;18597;48.328;7.932;2024-01-30T09:40:25;101039.59;;;8.64;100.00
32083;BME280;18597;48.328;7.932;2024-01-30T09:42:51;101041.66;;;8.90;100.00
32083;BME280;18597;48.328;7.932;2024-01-30T09:45:18;101041.06;;;9.16;100.00
32083;BME280;18597;48.328;7.932;2024-01-30T09:47:45;101041.91;;;9.33;100.00
32083;BME280;18597;48.328;7.932;2024-01-30T09:50:13;101036.38;;;9.36;100.00
32083;BME280;18597;48.328;7.932;2024-01-30T09:52:40;101034.72;;;9.49;100.00
32083;BME280;18597;48.328;7.932;2024-01-30T09:55:07;101037.31;;;9.65;100.00
32083;BME280;18597;48.328;7.932;2024-01-30T09:57:34;101037.50;;;9.92;100.00
32083;BME280;18597;48.328;7.932;2024-01-30T10:00:01;101035.41;;;10.11;100.00
32083;BME280;18597;48.328;7.932;2024-01-30T10:02:27;101043.84;;;10.48;97.58
32083;BME280;18597;48.328;7.932;2024-01-30T10:04:53;101034.47;;;10.69;91.89
32083;BME280;18597;48.328;7.932;2024-01-30T10:07:19;101027.19;;;10.86;97.98
32083;BME280;18597;48.328;7.932;2024-01-30T10:09:46;101028.69;;;11.04;95.44
32083;BME280;18597;48.328;7.932;2024-01-30T10:12:12;101019.34;;;11.24;84.48
32083;BME280;18597;48.328;7.932;2024-01-30T10:14:40;101020.25;;;11.37;78.92
32083;BME280;18597;48.328;7.932;2024-01-30T10:17:09;101021.78;;;11.54;83.83
32083;BME280;18597;48.328;7.932;2024-01-30T10:19:37;101021.94;;;11.65;80.13
32083;BME280;18597;48.328;7.932;2024-01-30T10:22:04;101023.25;;;11.85;73.52
32083;BME280;18597;48.328;7.932;2024-01-30T10:24:30;101027.66;;;11.86;76.47
32083;BME280;18597;48.328;7.932;2024-01-30T10:26:56;101028.88;;;11.94;76.54
32083;BME280;18597;48.328;7.932;2024-01-30T10:29:23;101018.47;;;12.03;74.22
32083;BME280;18597;48.328;7.932;2024-01-30T10:32:05;101012.47;;;12.12;69.16
32083;BME280;18597;48.328;7.932;2024-01-30T10:34:32;101010.94;;;12.08;70.96
32083;BME280;18597;48.328;7.932;2024-01-30T10:37:08;101015.34;;;12.21;68.93
32083;BME280;18597;48.328;7.932;2024-01-30T10:39:41;101013.72;;;12.32;65.91
32083;BME280;18597;48.328;7.932;2024-01-30T10:42:13;101013.09;;;12.41;66.98
32083;BME280;18597;48.328;7.932;2024-01-30T10:45:06;101025.59;;;12.53;67.90
32083;BME280;18597;48.328;7.932;2024-01-30T10:47:35;101012.19;;;12.66;65.64
32083;BME280;18597;48.328;7.932;2024-01-30T10:50:03;101012.03;;;12.80;60.75
32083;BME280;18597;48.328;7.932;2024-01-30T10:52:29;101007.84;;;12.76;62.05
32083;BME280;18597;48.328;7.932;2024-01-30T10:54:57;101012.66;;;12.84;63.39
32083;BME280;18597;48.328;7.932;2024-01-30T10:57:24;101012.88;;;12.93;64.78
32083;BME280;18597;48.328;7.932;2024-01-30T10:59:53;101010.59;;;13.00;61.89
32083;BME280;18597;48.328;7.932;2024-01-30T11:02:21;101013.66;;;13.06;63.04
32083;BME280;18597;48.328;7.932;2024-01-30T11:04:49;101008.56;;;13.15;63.18
32083;BME280;18597;48.328;7.932;2024-01-30T11:07:16;101008.56;;;13.27;59.69
32083;BME280;18597;48.328;7.932;2024-01-30T11:12:39;101008.69;;;13.37;67.04
32083;BME280;18597;48.328;7.932;2024-01-30T11:15:10;101005.81;;;13.40;67.56
32083;BME280;18597;48.328;7.932;2024-01-30T11:20:25;101001.38;;;13.63;64.84
32083;BME280;18597;48.328;7.932;2024-01-30T11:22:53;101004.34;;;13.82;60.12
32083;BME280;18597;48.328;7.932;2024-01-30T11:25:21;100996.59;;;13.55;56.46
32083;BME280;18597;48.328;7.932;2024-01-30T11:27:52;100990.38;;;13.66;58.27
32083;BME280;18597;48.328;7.932;2024-01-30T11:33:29;100999.25;;;14.13;55.94
32083;BME280;18597;48.328;7.932;2024-01-30T11:35:58;101001.34;;;14.21;53.95
32083;BME280;18597;48.328;7.932;2024-01-30T11:38:27;101001.22;;;14.33;55.38
32083;BME280;18597;48.328;7.932;2024-01-30T11:40:55;101001.00;;;14.36;54.02
32083;BME280;18597;48.328;7.932;2024-01-30T11:43:22;101005.41;;;14.37;54.79
32083;BME280;18597;48.328;7.932;2024-01-30T11:45:49;101000.88;;;14.38;53.79
32083;BME280;18597;48.328;7.932;2024-01-30T11:48:15;101006.38;;;14.36;54.46
32083;BME280;18597;48.328;7.932;2024-01-30T11:50:41;101011.38;;;14.41;52.05
32083;BME280;18597;48.328;7.932;2024-01-30T11:53:08;101010.44;;;14.53;53.32
32083;BME280;18597;48.328;7.932;2024-01-30T11:55:35;100999.28;;;14.69;53.24
32083;BME280;18597;48.328;7.932;2024-01-30T11:58:03;100993.44;;;14.75;52.85
32083;BME280;18597;48.328;7.932;2024-01-30T12:00:30;100997.47;;;14.69;50.67
32083;BME280;18597;48.328;7.932;2024-01-30T12:03:01;100997.22;;;14.50;51.46
32083;BME280;18597;48.328;7.932;2024-01-30T12:05:28;100996.72;;;14.56;51.64
32083;BME280;18597;48.328;7.932;2024-01-30T12:07:55;100998.22;;;14.60;53.08
32083;BME280;18597;48.328;7.932;2024-01-30T12:10:24;100997.56;;;14.79;50.78
32083;BME280;18597;48.328;7.932;2024-01-30T12:12:50;100993.28;;;14.65;51.50
32083;BME280;18597;48.328;7.932;2024-01-30T12:15:18;100998.47;;;14.46;51.00
32083;BME280;18597;48.328;7.932;2024-01-30T12:17:44;101000.41;;;14.55;51.31
32083;BME280;18597;48.328;7.932;2024-01-30T12:20:14;101002.75;;;14.60;51.65
32083;BME280;18597;48.328;7.932;2024-01-30T12:22:42;100992.69;;;14.51;49.90
32083;BME280;18597;48.328;7.932;2024-01-30T12:25:12;101000.63;;;14.30;51.80
32083;BME280;18597;48.328;7.932;2024-01-30T12:27:40;101001.50;;;14.30;50.94
32083;BME280;18597;48.328;7.932;2024-01-30T12:30:09;100992.31;;;14.22;51.63
32083;BME280;18597;48.328;7.932;2024-01-30T12:32:36;100994.00;;;14.11;53.00
32083;BME280;18597;48.328;7.932;2024-01-30T12:35:03;100980.09;;;14.06;52.65
32083;BME280;18597;48.328;7.932;2024-01-30T12:37:30;100985.34;;;14.08;54.12
32083;BME280;18597;48.328;7.932;2024-01-30T12:39:56;100982.78;;;14.06;53.42
32083;BME280;18597;48.328;7.932;2024-01-30T12:42:22;100976.16;;;13.77;53.00
32083;BME280;18597;48.328;7.932;2024-01-30T12:44:49;100971.47;;;13.68;54.92
32083;BME280;18597;48.328;7.932;2024-01-30T12:47:15;100974.16;;;13.68;54.85
32083;BME280;18597;48.328;7.932;2024-01-30T12:49:43;100973.22;;;13.80;54.77
32083;BME280;18597;48.328;7.932;2024-01-30T12:52:12;100981.66;;;13.98;55.23
32083;BME280;18597;48.328;7.932;2024-01-30T12:54:38;100972.75;;;14.08;52.73